Dauby — WDE9673 — position and weather

sailwx.info

Track history (hours):
 
Tides and Currents Weather Stations Pressure Air Temp Water Temp Dewpoint Dewpoint Depression Visibility Wind Speed Wind Dir Waves Ship Positions

Dauby

Owner: S D S LUMBER CO, BIRGEN, WA. More information available from US FCC via Universal Licensing System and Coast Guard Vessel Documentation Center.

Last reported at 2018-Feb-19 21:07 UTC. Time now 2018-Feb-22 03:12 UTC.
Position N 45°37' W 122°02'.

Length 15 m; draft 2.8 m.

MMSI: 338059832.

Date/timePositionNaut miles runAvg speedWind from/ knotsBaromVisibWave heightAir tempDewpointWater temp
2018-Feb-19 21:07N 45°37' W 122°02'1 5.1
2018-Feb-19 20:52N 45°36' W 122°04'3 6.1
2018-Feb-19 20:25N 45°35' W 122°07'3 5.9
2018-Feb-19 20:00N 45°35' W 122°11'6 5.5
2018-Feb-19 18:58N 45°33' W 122°19'4 4.9
2018-Feb-19 18:10N 45°34' W 122°24'1 4.5
2018-Feb-19 17:59N 45°34' W 122°25'3 5.1
2018-Feb-19 17:27N 45°35' W 122°29'3 5.5
2018-Feb-19 16:59N 45°36' W 122°32'3 5.5
2018-Feb-19 16:29N 45°36' W 122°36'3 5.8
2018-Feb-19 16:00N 45°37' W 122°40'3 5.9
2018-Feb-19 15:28N 45°38' W 122°44'3 6.1
2018-Feb-19 15:00N 45°41' W 122°46'3 6.3
2018-Feb-19 14:30N 45°44' W 122°46'3 6.2
2018-Feb-19 14:00N 45°47' W 122°46'3 6.0
2018-Feb-19 13:30N 45°50' W 122°48'3 5.6
2018-Feb-19 13:00N 45°52' W 122°47'2 4.2
2018-Feb-19 12:30N 45°54' W 122°49'0 0.0
2018-Feb-19 12:00N 45°54' W 122°49'0 0.0
2018-Feb-19 10:49N 45°54' W 122°49'2 5.3
2018-Feb-19 10:30N 45°56' W 122°48'3 6.9
2018-Feb-19 10:00N 45°59' W 122°51'6 8.6
2018-Feb-19 09:19N 46°05' W 122°54'1 2.9
2018-Feb-19 09:00N 46°05' W 122°55'1 1.8
2018-Feb-19 08:30N 46°06' W 122°55'0 0.0
2018-Feb-18 14:10N 46°06' W 122°55'1 4.4
2018-Feb-18 14:01N 46°06' W 122°55'0 0.8
2018-Feb-18 13:31N 46°06' W 122°56'0 0.3
2018-Feb-18 13:01N 46°06' W 122°56'1 2.5
2018-Feb-18 12:30N 46°06' W 122°58'2 3.1
2018-Feb-18 12:00N 46°06' W 122°55'1 0.0
2018-Feb-16 17:25N 46°06' W 122°55'1 2.3
2018-Feb-16 17:00N 46°05' W 122°55'7 8.4
2018-Feb-16 16:11N 45°59' W 122°50'2 7.3
2018-Feb-16 15:53N 45°57' W 122°49'3 7.0
2018-Feb-16 15:30N 45°55' W 122°49'0 1.0
2018-Feb-16 15:00N 45°54' W 122°49'0 0.1
2018-Feb-16 14:30N 45°54' W 122°49'0 0.0
2018-Feb-16 14:01N 45°54' W 122°49'1 2.7
2018-Feb-16 13:30N 45°56' W 122°48'4 7.9
2018-Feb-16 13:00N 45°59' W 122°51'4 8.1
2018-Feb-16 12:30N 46°03' W 122°53'3 4.8
2018-Feb-16 11:47N 46°06' W 122°55'0 0.2
2018-Feb-16 11:30N 46°06' W 122°55'0 0.8
2018-Feb-16 11:00N 46°06' W 122°56'1 2.3
2018-Feb-16 10:30N 46°06' W 122°58'0 0.0
2018-Feb-16 10:00N 46°06' W 122°58'1 1.1
2018-Feb-16 09:03N 46°06' W 122°56'0 0.0
2018-Feb-16 09:01N 46°06' W 122°56'1 2.6
2018-Feb-16 08:30N 46°05' W 122°55'5 9.8
2018-Feb-16 08:00N 46°01' W 122°51'510.0
2018-Feb-16 07:30N 45°56' W 122°48'510.0
2018-Feb-16 07:00N 45°51' W 122°47'5 9.4
2018-Feb-16 06:30N 45°47' W 122°46'5 9.7
2018-Feb-16 06:00N 45°42' W 122°46'4 8.5
2018-Feb-16 05:30N 45°38' W 122°43'3 6.4
2018-Feb-16 05:00N 45°37' W 122°39'4 8.8
2018-Feb-16 04:30N 45°36' W 122°33'5 9.7
2018-Feb-16 04:00N 45°34' W 122°26'4 9.0
2018-Feb-16 03:30N 45°33' W 122°20'5 9.2
2018-Feb-16 03:00N 45°33' W 122°13'5 9.0
2018-Feb-16 02:29N 45°35' W 122°07'4 0.9
2018-Feb-15 21:28N 45°37' W 122°02'2 5.3
2018-Feb-15 21:00N 45°36' W 122°05'3 5.7
2018-Feb-15 20:30N 45°35' W 122°09'3 7.0
2018-Feb-15 20:00N 45°34' W 122°13'3 6.8
2018-Feb-15 19:30N 45°33' W 122°18'3 6.4
2018-Feb-15 19:00N 45°34' W 122°22'3 5.6
2018-Feb-15 18:30N 45°34' W 122°26'3 6.3
2018-Feb-15 18:00N 45°35' W 122°30'3 6.6
2018-Feb-15 17:30N 45°36' W 122°35'3 6.7
2018-Feb-15 17:00N 45°37' W 122°39'2 4.9
2018-Feb-15 16:30N 45°38' W 122°42'3 6.2
2018-Feb-15 16:00N 45°40' W 122°46'3 6.7
2018-Feb-15 15:31N 45°43' W 122°46'4 7.0
2018-Feb-15 15:00N 45°47' W 122°46'4 6.9
2018-Feb-15 14:30N 45°50' W 122°48'3 6.7
2018-Feb-15 14:00N 45°53' W 122°48'3 6.4
2018-Feb-15 13:31N 45°56' W 122°48'4 7.2
2018-Feb-15 13:00N 45°60' W 122°51'4 7.2
2018-Feb-15 12:30N 46°03' W 122°53'3 6.8
2018-Feb-15 12:01N 46°06' W 122°56'2 2.4
2018-Feb-15 11:13N 46°07' W 122°58'0 1.1
2018-Feb-15 10:53N 46°07' W 122°58'0 0.4
2018-Feb-15 10:30N 46°07' W 122°58'2 4.3
2018-Feb-15 10:00N 46°06' W 122°56'0 0.7
2018-Feb-15 09:31N 46°06' W 122°56'0 0.7
2018-Feb-15 09:01N 46°06' W 122°56'1 1.0
2018-Feb-15 08:30N 46°06' W 122°55'2 3.6
2018-Feb-15 08:00N 46°07' W 122°58'2 4.5
2018-Feb-15 07:30N 46°08' W 123°00'3 5.4
2018-Feb-15 07:00N 46°09' W 123°04'3 5.5
2018-Feb-15 06:30N 46°11' W 123°07'3 5.2
2018-Feb-15 06:01N 46°11' W 123°11'3 5.2
2018-Feb-15 05:31N 46°10' W 123°14'3 5.0
2018-Feb-15 05:01N 46°09' W 123°17'3 5.4
2018-Feb-15 04:31N 46°09' W 123°21'2 5.0
2018-Feb-15 04:01N 46°10' W 123°24'2 4.7
2018-Feb-15 03:30N 46°12' W 123°26'3 5.1
2018-Feb-15 03:01N 46°14' W 123°26'3 5.3
2018-Feb-15 02:30N 46°16' W 123°29'3 5.8
2018-Feb-15 02:01N 46°15' W 123°33'3 5.3
2018-Feb-15 01:30N 46°15' W 123°37'3 5.1
2018-Feb-15 01:01N 46°15' W 123°40'3 5.7
2018-Feb-15 00:31N 46°14' W 123°44'3 5.2
2018-Feb-15 00:01N 46°12' W 123°47'2 4.8
2018-Feb-14 23:30N 46°12' W 123°51'2 4.4
2018-Feb-14 23:00N 46°11' W 123°54'1 2.2
2018-Feb-14 22:31N 46°11' W 123°55'0 0.3
2018-Feb-14 22:00N 46°12' W 123°56'0 0.2
2018-Feb-14 21:31N 46°11' W 123°55'2 4.2
2018-Feb-14 21:00N 46°12' W 123°52'5 9.4
2018-Feb-14 20:31N 46°13' W 123°46'5 9.2
2018-Feb-14 20:00N 46°15' W 123°40'4 8.9
2018-Feb-14 19:31N 46°15' W 123°34'5 8.2
2018-Feb-14 18:54N 46°15' W 123°27'4 9.8
2018-Feb-14 18:31N 46°11' W 123°26'2 3.1
2018-Feb-14 18:01N 46°10' W 123°24'4 7.8
2018-Feb-14 17:31N 46°09' W 123°19'5 9.9
2018-Feb-14 17:00N 46°11' W 123°12'5 9.6
2018-Feb-14 16:30N 46°10' W 123°05'710.6
2018-Feb-14 15:48N 46°06' W 122°56'1 3.1
2018-Feb-14 15:31N 46°05' W 122°55'1 1.5
2018-Feb-14 15:01N 46°06' W 122°56'1 1.0
2018-Feb-14 14:30N 46°06' W 122°55'1 1.3
2018-Feb-14 14:01N 46°05' W 122°55'1 1.7
2018-Feb-14 13:31N 46°06' W 122°56'3 6.5
2018-Feb-14 13:01N 46°04' W 122°53'4 7.1
2018-Feb-14 12:30N 46°00' W 122°51'4 7.7
2018-Feb-14 12:00N 45°57' W 122°49'4 7.8
2018-Feb-14 11:28N 45°53' W 122°48'4 7.6
2018-Feb-14 11:00N 45°49' W 122°48'4 7.8
2018-Feb-14 10:30N 45°46' W 122°46'4 8.4
2018-Feb-14 10:01N 45°41' W 122°46'4 7.4
2018-Feb-14 09:30N 45°38' W 122°43'4 8.4
2018-Feb-14 09:00N 45°36' W 122°38'4 8.6
2018-Feb-14 08:31N 45°35' W 122°32'4 8.4
2018-Feb-14 08:00N 45°34' W 122°26'4 8.2
2018-Feb-14 07:31N 45°34' W 122°21'4 8.0
2018-Feb-14 07:00N 45°33' W 122°15'4 7.8
2018-Feb-14 06:30N 45°35' W 122°10'4 7.5
2018-Feb-14 05:57N 45°36' W 122°04'2 0.1
2018-Feb-13 08:59N 45°37' W 122°02'4 6.4
2018-Feb-13 08:26N 45°35' W 122°07'3 6.1
2018-Feb-13 07:59N 45°35' W 122°11'3 6.5
2018-Feb-13 07:30N 45°33' W 122°15'3 6.4
2018-Feb-13 07:01N 45°33' W 122°19'3 5.9
2018-Feb-13 06:30N 45°35' W 122°23'4 5.5
2018-Feb-13 05:50N 45°34' W 122°28'1 2.6
2018-Feb-13 05:30N 45°35' W 122°29'0 0.2
2018-Feb-13 05:00N 45°35' W 122°29'3 5.6
2018-Feb-13 04:30N 45°35' W 122°25'2 4.0
2018-Feb-13 04:01N 45°35' W 122°28'2 3.1
2018-Feb-13 03:30N 45°35' W 122°30'3 6.8
2018-Feb-13 03:00N 45°36' W 122°34'3 6.9
2018-Feb-13 02:30N 45°37' W 122°39'3 6.9
2018-Feb-13 02:00N 45°39' W 122°43'3 6.9
2018-Feb-13 01:30N 45°41' W 122°46'4 7.5
2018-Feb-13 01:01N 45°45' W 122°46'4 7.4
2018-Feb-13 00:28N 45°49' W 122°48'3 7.3
2018-Feb-13 00:00N 45°52' W 122°47'4 7.0
2018-Feb-12 23:30N 45°56' W 122°48'4 7.2
2018-Feb-12 23:00N 45°59' W 122°50'4 7.5
2018-Feb-12 22:30N 46°02' W 122°53'4 7.1
2018-Feb-12 22:00N 46°05' W 122°55'1 1.0
2018-Feb-12 21:31N 46°06' W 122°55'0 0.7
2018-Feb-12 21:01N 46°06' W 122°56'3 4.5
2018-Feb-12 20:19N 46°03' W 122°53'2 7.8
2018-Feb-12 20:00N 46°01' W 122°52'4 8.0
2018-Feb-12 19:30N 45°58' W 122°49'4 8.5
2018-Feb-12 19:00N 45°53' W 122°48'4 8.4
2018-Feb-12 18:30N 45°49' W 122°48'4 8.5
2018-Feb-12 18:00N 45°45' W 122°46'4 8.7
2018-Feb-12 17:30N 45°41' W 122°47'4 8.0
2018-Feb-12 17:00N 45°38' W 122°42'4 8.8
2018-Feb-12 16:31N 45°36' W 122°37'5 9.6
2018-Feb-12 16:00N 45°35' W 122°30'5 9.3
2018-Feb-12 15:30N 45°34' W 122°23'5 9.2
2018-Feb-12 15:00N 45°33' W 122°17'5 9.1
2018-Feb-12 14:30N 45°34' W 122°11'4 8.7
2018-Feb-12 13:59N 45°35' W 122°05'  
Track history (hours):
 
Tides and Currents Weather Stations Pressure Air Temp Water Temp Dewpoint Dewpoint Depression Visibility Wind Speed Wind Dir Waves Ship Positions

Dauby

Owner: S D S LUMBER CO, BIRGEN, WA. More information available from US FCC via Universal Licensing System and Coast Guard Vessel Documentation Center.

Last reported at 2018-Feb-19 21:07 UTC. Time now 2018-Feb-22 03:12 UTC.
Position N 45°37' W 122°02'.

Length 15 m; draft 2.8 m.

MMSI: 338059832.

Date/timePositionNaut miles runAvg speedWind from/ knotsBaromVisibWave heightAir tempDewpointWater temp
2018-Feb-19 21:07N 45°37' W 122°02'1 5.1
2018-Feb-19 20:52N 45°36' W 122°04'3 6.1
2018-Feb-19 20:25N 45°35' W 122°07'3 5.9
2018-Feb-19 20:00N 45°35' W 122°11'6 5.5
2018-Feb-19 18:58N 45°33' W 122°19'4 4.9
2018-Feb-19 18:10N 45°34' W 122°24'1 4.5
2018-Feb-19 17:59N 45°34' W 122°25'3 5.1
2018-Feb-19 17:27N 45°35' W 122°29'3 5.5
2018-Feb-19 16:59N 45°36' W 122°32'3 5.5
2018-Feb-19 16:29N 45°36' W 122°36'3 5.8
2018-Feb-19 16:00N 45°37' W 122°40'3 5.9
2018-Feb-19 15:28N 45°38' W 122°44'3 6.1
2018-Feb-19 15:00N 45°41' W 122°46'3 6.3
2018-Feb-19 14:30N 45°44' W 122°46'3 6.2
2018-Feb-19 14:00N 45°47' W 122°46'3 6.0
2018-Feb-19 13:30N 45°50' W 122°48'3 5.6
2018-Feb-19 13:00N 45°52' W 122°47'2 4.2
2018-Feb-19 12:30N 45°54' W 122°49'0 0.0
2018-Feb-19 12:00N 45°54' W 122°49'0 0.0
2018-Feb-19 10:49N 45°54' W 122°49'2 5.3
2018-Feb-19 10:30N 45°56' W 122°48'3 6.9
2018-Feb-19 10:00N 45°59' W 122°51'6 8.6
2018-Feb-19 09:19N 46°05' W 122°54'1 2.9
2018-Feb-19 09:00N 46°05' W 122°55'1 1.8
2018-Feb-19 08:30N 46°06' W 122°55'0 0.0
2018-Feb-18 14:10N 46°06' W 122°55'1 4.4
2018-Feb-18 14:01N 46°06' W 122°55'0 0.8
2018-Feb-18 13:31N 46°06' W 122°56'0 0.3
2018-Feb-18 13:01N 46°06' W 122°56'1 2.5
2018-Feb-18 12:30N 46°06' W 122°58'2 3.1
2018-Feb-18 12:00N 46°06' W 122°55'1 0.0
2018-Feb-16 17:25N 46°06' W 122°55'1 2.3
2018-Feb-16 17:00N 46°05' W 122°55'7 8.4
2018-Feb-16 16:11N 45°59' W 122°50'2 7.3
2018-Feb-16 15:53N 45°57' W 122°49'3 7.0
2018-Feb-16 15:30N 45°55' W 122°49'0 1.0
2018-Feb-16 15:00N 45°54' W 122°49'0 0.1
2018-Feb-16 14:30N 45°54' W 122°49'0 0.0
2018-Feb-16 14:01N 45°54' W 122°49'1 2.7
2018-Feb-16 13:30N 45°56' W 122°48'4 7.9
2018-Feb-16 13:00N 45°59' W 122°51'4 8.1
2018-Feb-16 12:30N 46°03' W 122°53'3 4.8
2018-Feb-16 11:47N 46°06' W 122°55'0 0.2
2018-Feb-16 11:30N 46°06' W 122°55'0 0.8
2018-Feb-16 11:00N 46°06' W 122°56'1 2.3
2018-Feb-16 10:30N 46°06' W 122°58'0 0.0
2018-Feb-16 10:00N 46°06' W 122°58'1 1.1
2018-Feb-16 09:03N 46°06' W 122°56'0 0.0
2018-Feb-16 09:01N 46°06' W 122°56'1 2.6
2018-Feb-16 08:30N 46°05' W 122°55'5 9.8
2018-Feb-16 08:00N 46°01' W 122°51'510.0
2018-Feb-16 07:30N 45°56' W 122°48'510.0
2018-Feb-16 07:00N 45°51' W 122°47'5 9.4
2018-Feb-16 06:30N 45°47' W 122°46'5 9.7
2018-Feb-16 06:00N 45°42' W 122°46'4 8.5
2018-Feb-16 05:30N 45°38' W 122°43'3 6.4
2018-Feb-16 05:00N 45°37' W 122°39'4 8.8
2018-Feb-16 04:30N 45°36' W 122°33'5 9.7
2018-Feb-16 04:00N 45°34' W 122°26'4 9.0
2018-Feb-16 03:30N 45°33' W 122°20'5 9.2
2018-Feb-16 03:00N 45°33' W 122°13'5 9.0
2018-Feb-16 02:29N 45°35' W 122°07'4 0.9
2018-Feb-15 21:28N 45°37' W 122°02'2 5.3
2018-Feb-15 21:00N 45°36' W 122°05'3 5.7
2018-Feb-15 20:30N 45°35' W 122°09'3 7.0
2018-Feb-15 20:00N 45°34' W 122°13'3 6.8
2018-Feb-15 19:30N 45°33' W 122°18'3 6.4
2018-Feb-15 19:00N 45°34' W 122°22'3 5.6
2018-Feb-15 18:30N 45°34' W 122°26'3 6.3
2018-Feb-15 18:00N 45°35' W 122°30'3 6.6
2018-Feb-15 17:30N 45°36' W 122°35'3 6.7
2018-Feb-15 17:00N 45°37' W 122°39'2 4.9
2018-Feb-15 16:30N 45°38' W 122°42'3 6.2
2018-Feb-15 16:00N 45°40' W 122°46'3 6.7
2018-Feb-15 15:31N 45°43' W 122°46'4 7.0
2018-Feb-15 15:00N 45°47' W 122°46'4 6.9
2018-Feb-15 14:30N 45°50' W 122°48'3 6.7
2018-Feb-15 14:00N 45°53' W 122°48'3 6.4
2018-Feb-15 13:31N 45°56' W 122°48'4 7.2
2018-Feb-15 13:00N 45°60' W 122°51'4 7.2
2018-Feb-15 12:30N 46°03' W 122°53'3 6.8
2018-Feb-15 12:01N 46°06' W 122°56'2 2.4
2018-Feb-15 11:13N 46°07' W 122°58'0 1.1
2018-Feb-15 10:53N 46°07' W 122°58'0 0.4
2018-Feb-15 10:30N 46°07' W 122°58'2 4.3
2018-Feb-15 10:00N 46°06' W 122°56'0 0.7
2018-Feb-15 09:31N 46°06' W 122°56'0 0.7
2018-Feb-15 09:01N 46°06' W 122°56'1 1.0
2018-Feb-15 08:30N 46°06' W 122°55'2 3.6
2018-Feb-15 08:00N 46°07' W 122°58'2 4.5
2018-Feb-15 07:30N 46°08' W 123°00'3 5.4
2018-Feb-15 07:00N 46°09' W 123°04'3 5.5
2018-Feb-15 06:30N 46°11' W 123°07'3 5.2
2018-Feb-15 06:01N 46°11' W 123°11'3 5.2
2018-Feb-15 05:31N 46°10' W 123°14'3 5.0
2018-Feb-15 05:01N 46°09' W 123°17'3 5.4
2018-Feb-15 04:31N 46°09' W 123°21'2 5.0
2018-Feb-15 04:01N 46°10' W 123°24'2 4.7
2018-Feb-15 03:30N 46°12' W 123°26'3 5.1
2018-Feb-15 03:01N 46°14' W 123°26'3 5.3
2018-Feb-15 02:30N 46°16' W 123°29'3 5.8
2018-Feb-15 02:01N 46°15' W 123°33'3 5.3
2018-Feb-15 01:30N 46°15' W 123°37'3 5.1
2018-Feb-15 01:01N 46°15' W 123°40'3 5.7
2018-Feb-15 00:31N 46°14' W 123°44'3 5.2
2018-Feb-15 00:01N 46°12' W 123°47'2 4.8
2018-Feb-14 23:30N 46°12' W 123°51'2 4.4
2018-Feb-14 23:00N 46°11' W 123°54'1 2.2
2018-Feb-14 22:31N 46°11' W 123°55'0 0.3
2018-Feb-14 22:00N 46°12' W 123°56'0 0.2
2018-Feb-14 21:31N 46°11' W 123°55'2 4.2
2018-Feb-14 21:00N 46°12' W 123°52'5 9.4
2018-Feb-14 20:31N 46°13' W 123°46'5 9.2
2018-Feb-14 20:00N 46°15' W 123°40'4 8.9
2018-Feb-14 19:31N 46°15' W 123°34'5 8.2
2018-Feb-14 18:54N 46°15' W 123°27'4 9.8
2018-Feb-14 18:31N 46°11' W 123°26'2 3.1
2018-Feb-14 18:01N 46°10' W 123°24'4 7.8
2018-Feb-14 17:31N 46°09' W 123°19'5 9.9
2018-Feb-14 17:00N 46°11' W 123°12'5 9.6
2018-Feb-14 16:30N 46°10' W 123°05'710.6
2018-Feb-14 15:48N 46°06' W 122°56'1 3.1
2018-Feb-14 15:31N 46°05' W 122°55'1 1.5
2018-Feb-14 15:01N 46°06' W 122°56'1 1.0
2018-Feb-14 14:30N 46°06' W 122°55'1 1.3
2018-Feb-14 14:01N 46°05' W 122°55'1 1.7
2018-Feb-14 13:31N 46°06' W 122°56'3 6.5
2018-Feb-14 13:01N 46°04' W 122°53'4 7.1
2018-Feb-14 12:30N 46°00' W 122°51'4 7.7
2018-Feb-14 12:00N 45°57' W 122°49'4 7.8
2018-Feb-14 11:28N 45°53' W 122°48'4 7.6
2018-Feb-14 11:00N 45°49' W 122°48'4 7.8
2018-Feb-14 10:30N 45°46' W 122°46'4 8.4
2018-Feb-14 10:01N 45°41' W 122°46'4 7.4
2018-Feb-14 09:30N 45°38' W 122°43'4 8.4
2018-Feb-14 09:00N 45°36' W 122°38'4 8.6
2018-Feb-14 08:31N 45°35' W 122°32'4 8.4
2018-Feb-14 08:00N 45°34' W 122°26'4 8.2
2018-Feb-14 07:31N 45°34' W 122°21'4 8.0
2018-Feb-14 07:00N 45°33' W 122°15'4 7.8
2018-Feb-14 06:30N 45°35' W 122°10'4 7.5
2018-Feb-14 05:57N 45°36' W 122°04'2 0.1
2018-Feb-13 08:59N 45°37' W 122°02'4 6.4
2018-Feb-13 08:26N 45°35' W 122°07'3 6.1
2018-Feb-13 07:59N 45°35' W 122°11'3 6.5
2018-Feb-13 07:30N 45°33' W 122°15'3 6.4
2018-Feb-13 07:01N 45°33' W 122°19'3 5.9
2018-Feb-13 06:30N 45°35' W 122°23'4 5.5
2018-Feb-13 05:50N 45°34' W 122°28'1 2.6
2018-Feb-13 05:30N 45°35' W 122°29'0 0.2
2018-Feb-13 05:00N 45°35' W 122°29'3 5.6
2018-Feb-13 04:30N 45°35' W 122°25'2 4.0
2018-Feb-13 04:01N 45°35' W 122°28'2 3.1
2018-Feb-13 03:30N 45°35' W 122°30'3 6.8
2018-Feb-13 03:00N 45°36' W 122°34'3 6.9
2018-Feb-13 02:30N 45°37' W 122°39'3 6.9
2018-Feb-13 02:00N 45°39' W 122°43'3 6.9
2018-Feb-13 01:30N 45°41' W 122°46'4 7.5
2018-Feb-13 01:01N 45°45' W 122°46'4 7.4
2018-Feb-13 00:28N 45°49' W 122°48'3 7.3
2018-Feb-13 00:00N 45°52' W 122°47'4 7.0
2018-Feb-12 23:30N 45°56' W 122°48'4 7.2
2018-Feb-12 23:00N 45°59' W 122°50'4 7.5
2018-Feb-12 22:30N 46°02' W 122°53'4 7.1
2018-Feb-12 22:00N 46°05' W 122°55'1 1.0
2018-Feb-12 21:31N 46°06' W 122°55'0 0.7
2018-Feb-12 21:01N 46°06' W 122°56'3 4.5
2018-Feb-12 20:19N 46°03' W 122°53'2 7.8
2018-Feb-12 20:00N 46°01' W 122°52'4 8.0
2018-Feb-12 19:30N 45°58' W 122°49'4 8.5
2018-Feb-12 19:00N 45°53' W 122°48'4 8.4
2018-Feb-12 18:30N 45°49' W 122°48'4 8.5
2018-Feb-12 18:00N 45°45' W 122°46'4 8.7
2018-Feb-12 17:30N 45°41' W 122°47'4 8.0
2018-Feb-12 17:00N 45°38' W 122°42'4 8.8
2018-Feb-12 16:31N 45°36' W 122°37'5 9.6
2018-Feb-12 16:00N 45°35' W 122°30'5 9.3
2018-Feb-12 15:30N 45°34' W 122°23'5 9.2
2018-Feb-12 15:00N 45°33' W 122°17'5 9.1
2018-Feb-12 14:30N 45°34' W 122°11'4 8.7
2018-Feb-12 13:59N 45°35' W 122°05'  

Dump ship's entire track history